هرات, Afghanistan

03:22 PM AFT on ژانویه 17, 2017 (GMT +0430)
Herat | | Change Station

Elev 3163 ft 34.22 °N, 62.22 °E | Updated 57 minutes ago

صاف
صاف
41 °F
Feels Like 41 °F
N
0
باد متغير باد from شمال

امروز
High -- | Low -- °F
--% Chance of Precip.
دیروز
High -- | Low -- °F
Precip. -- در
فشار 30.18 در
ديد 3.7 مايل، ميل (در برابر كيلومتر
ابری
قطره شبنم 30 °F
رطوبت 65%
بارش باران 0.00 در
برف عمیق Not available.
7:27 AM 5:36 PM
Waning Gibbous, 73% visible
METAR OAHR 170955Z 00000KT 6000 NSC 05/M01 Q1022 RMK WHT
فشار 30.18 در
ديد 3.7 مايل، ميل (در برابر كيلومتر
ابری
قطره شبنم 30 °F
رطوبت 65%
بارش باران 0.00 در
برف عمیق Not available.
7:27 AM 5:36 PM
Waning Gibbous, 73% visible
METAR OAHR 170955Z 00000KT 6000 NSC 05/M01 Q1022 RMK WHT

Get Your Daily Forecast Email!

Thanks for signing up!

Be on the lookout for a verification email in your inbox.

You'll start receiving the daily forecast at 8 AM.

×

10-Day Weather Forecast

No radar image for this location.
×

Almanac

ستاره شناسی

Jan. 17, 2017 Rise Set
وقت حقیقی
تاریک و روشن اجتماعی
تاریک روشن دریایی
شفق و فلق نجومی
ماه
میزان روشنایی روز
طول روز
Tomorrow will be .
, % of the Moon is Illuminated

Today's Extremes

Country Highs Country Lows

Community

WunderPhotos

Upload Photos

1,962,540 photos uploaded!

WunderBlog® & News

Nearby

تمیزی هوا

  تمیزی هوا AQ Index آلاینده
Not available.

عمق برف

Station Depth Elevation

Earthquake Activity

شهر Distance Mag. Time & Date
Minimum magnitude displayed is 2.5.

Coastal Water Temperatures

منطقه درجه حرارت

Stations

Nearby Weather Stations

Station Location دما باد سرد قطره شبنم رطوبت باد Precip. Elev ارتقا دادن Type